createdAt,value
2018-09-26T00:02:32.959Z,7.50
2018-09-26T00:05:06.655Z,7.50
2018-09-26T00:07:40.333Z,7.40
2018-09-26T00:10:14.217Z,7.40
2018-09-26T00:12:47.993Z,7.40
2018-09-26T00:15:21.765Z,7.40
2018-09-26T00:17:56.214Z,7.40
2018-09-26T00:20:29.822Z,7.40
2018-09-26T00:23:03.514Z,7.40
2018-09-26T00:25:37.366Z,7.40
2018-09-26T00:28:11.126Z,7.30
2018-09-26T00:30:44.961Z,7.20
2018-09-26T00:33:18.784Z,7.20
2018-09-26T00:35:53.583Z,7.10
2018-09-26T00:38:27.223Z,7.00
2018-09-26T00:41:01.664Z,7.00
2018-09-26T00:43:35.329Z,7.00
2018-09-26T00:46:09.813Z,7.10
2018-09-26T00:48:43.504Z,7.10
2018-09-26T00:51:17.275Z,7.10
2018-09-26T00:53:51.795Z,7.00
2018-09-26T00:56:25.467Z,7.00
2018-09-26T00:58:59.311Z,7.00
2018-09-26T01:01:33.107Z,6.90
2018-09-26T01:04:06.945Z,6.90
2018-09-26T01:06:41.535Z,6.80
2018-09-26T01:09:15.403Z,6.80
2018-09-26T01:11:49.238Z,6.80
2018-09-26T01:14:22.919Z,6.80
2018-09-26T01:16:56.792Z,6.80
2018-09-26T01:19:30.646Z,6.80
2018-09-26T01:22:04.509Z,6.80
2018-09-26T01:24:38.231Z,6.80
2018-09-26T01:27:12.806Z,6.60
2018-09-26T01:29:46.512Z,6.70
2018-09-26T01:32:20.143Z,6.60
2018-09-26T01:34:53.946Z,6.70
2018-09-26T01:37:28.276Z,6.60
2018-09-26T01:40:02.007Z,6.60
2018-09-26T01:42:35.687Z,6.50
2018-09-26T01:45:09.542Z,6.40
2018-09-26T01:47:43.331Z,6.40
2018-09-26T01:50:17.107Z,6.30
2018-09-26T01:52:51.520Z,6.30
2018-09-26T01:55:25.317Z,6.30
2018-09-26T01:57:59.864Z,6.30
2018-09-26T02:00:33.634Z,6.30
2018-09-26T02:03:07.384Z,6.30
2018-09-26T02:05:41.244Z,6.30
2018-09-26T02:08:14.996Z,6.20
2018-09-26T02:10:49.431Z,6.30
2018-09-26T02:13:23.220Z,6.20
2018-09-26T02:15:57.061Z,6.30
2018-09-26T02:18:30.951Z,6.20
2018-09-26T02:21:05.444Z,6.20
2018-09-26T02:23:39.245Z,6.20
2018-09-26T02:26:13.010Z,6.10
2018-09-26T02:28:46.852Z,6.20
2018-09-26T02:31:20.629Z,6.20
2018-09-26T02:33:54.380Z,6.20
2018-09-26T02:36:28.064Z,6.20
2018-09-26T02:39:02.623Z,6.10
2018-09-26T02:41:36.350Z,6.10
2018-09-26T02:44:10.931Z,5.90
2018-09-26T02:46:44.821Z,5.90
2018-09-26T02:49:18.467Z,5.90
2018-09-26T02:51:52.205Z,5.90
2018-09-26T02:54:26.006Z,5.90
2018-09-26T02:56:59.719Z,5.90
2018-09-26T02:59:33.630Z,5.90
2018-09-26T03:02:07.373Z,5.90
2018-09-26T03:04:41.189Z,5.90
2018-09-26T03:07:14.916Z,5.90
2018-09-26T03:09:48.822Z,5.80
2018-09-26T03:12:22.606Z,5.80
2018-09-26T03:14:56.467Z,5.80
2018-09-26T03:17:30.246Z,5.80
2018-09-26T03:20:04.757Z,5.80
2018-09-26T03:22:38.473Z,5.80
2018-09-26T03:25:12.354Z,5.80
2018-09-26T03:27:46.067Z,5.80
2018-09-26T03:30:19.900Z,5.80
2018-09-26T03:32:53.705Z,5.80
2018-09-26T03:35:28.320Z,5.90
2018-09-26T03:38:02.047Z,5.80
2018-09-26T03:40:35.900Z,5.80
2018-09-26T03:43:09.565Z,5.80
2018-09-26T03:45:43.320Z,5.70
2018-09-26T03:48:17.176Z,5.70
2018-09-26T03:50:50.980Z,5.70
2018-09-26T03:53:24.825Z,5.70
2018-09-26T03:55:58.574Z,5.80
2018-09-26T03:58:32.374Z,5.70
2018-09-26T04:01:06.091Z,5.70
2018-09-26T04:03:40.256Z,5.70
2018-09-26T04:06:13.952Z,5.70
2018-09-26T04:08:48.561Z,5.70
2018-09-26T04:11:23.103Z,5.60
2018-09-26T04:13:58.396Z,5.60
2018-09-26T04:16:32.182Z,5.60
2018-09-26T04:19:05.932Z,5.50
2018-09-26T04:21:39.684Z,5.40
2018-09-26T04:24:13.509Z,5.40
2018-09-26T04:26:48.225Z,5.30
2018-09-26T04:29:22.781Z,5.30
2018-09-26T04:31:57.289Z,5.30
2018-09-26T04:34:31.026Z,5.20
2018-09-26T04:37:05.492Z,5.40
2018-09-26T04:39:39.241Z,5.30
2018-09-26T04:42:12.983Z,5.40
2018-09-26T04:44:47.844Z,5.40
2018-09-26T04:47:21.549Z,5.40
2018-09-26T04:49:55.484Z,5.40
2018-09-26T04:52:29.211Z,5.40
2018-09-26T04:55:03.043Z,5.50
2018-09-26T04:57:37.092Z,5.50
2018-09-26T05:00:11.687Z,5.30
2018-09-26T05:02:45.390Z,5.30
2018-09-26T05:05:19.162Z,5.30
2018-09-26T05:07:53.676Z,5.30
2018-09-26T05:10:27.441Z,5.30
2018-09-26T05:13:01.252Z,5.30
2018-09-26T05:15:34.974Z,5.30
2018-09-26T05:18:08.977Z,5.30
2018-09-26T05:20:42.862Z,5.20
2018-09-26T05:23:16.698Z,5.20
2018-09-26T05:25:50.439Z,5.20
2018-09-26T05:28:24.187Z,5.20
2018-09-26T05:30:57.970Z,5.30
2018-09-26T05:33:31.803Z,5.30
2018-09-26T05:36:06.203Z,5.30
2018-09-26T05:38:40.640Z,5.30
2018-09-26T05:41:14.998Z,5.40
2018-09-26T05:43:49.561Z,5.40
2018-09-26T05:46:23.323Z,5.40
2018-09-26T05:48:57.060Z,5.50
2018-09-26T05:51:31.697Z,5.60
2018-09-26T05:54:05.540Z,5.50
2018-09-26T05:56:39.221Z,5.70
2018-09-26T05:59:13.036Z,5.70
2018-09-26T06:01:46.962Z,5.70
2018-09-26T06:04:20.636Z,5.70
2018-09-26T06:06:54.435Z,5.70
2018-09-26T06:09:28.227Z,5.70
2018-09-26T06:12:02.023Z,5.80
2018-09-26T06:14:35.843Z,5.90
2018-09-26T06:17:09.717Z,6.00
2018-09-26T06:19:44.301Z,6.20
2018-09-26T06:22:17.988Z,6.10
2018-09-26T06:24:53.180Z,6.30
2018-09-26T06:27:26.921Z,6.30
2018-09-26T06:30:00.771Z,6.40
2018-09-26T06:32:34.684Z,6.40
2018-09-26T06:35:08.484Z,6.50
2018-09-26T06:37:42.249Z,6.60
2018-09-26T06:40:16.060Z,6.70
2018-09-26T06:42:50.583Z,6.90
2018-09-26T06:45:24.139Z,6.90
2018-09-26T06:47:57.943Z,6.90
2018-09-26T06:50:32.453Z,7.10
2018-09-26T06:53:06.156Z,7.10
2018-09-26T06:55:39.937Z,7.20
2018-09-26T06:58:13.783Z,7.20
2018-09-26T07:00:47.571Z,7.30
2018-09-26T07:03:21.476Z,7.40
2018-09-26T07:05:55.958Z,7.50
2018-09-26T07:08:30.635Z,7.50
2018-09-26T07:11:04.309Z,7.40
2018-09-26T07:13:38.103Z,7.40
2018-09-26T07:16:11.867Z,7.60
2018-09-26T07:18:45.712Z,7.60
2018-09-26T07:21:19.561Z,7.80
2018-09-26T07:23:53.299Z,8.00
2018-09-26T07:26:27.237Z,8.20
2018-09-26T07:29:01.107Z,8.40
2018-09-26T07:31:35.706Z,8.50
2018-09-26T07:34:09.480Z,8.50
2018-09-26T07:36:43.224Z,8.60
2018-09-26T07:39:16.972Z,8.70
2018-09-26T07:41:50.813Z,8.80
2018-09-26T07:44:24.626Z,8.90
2018-09-26T07:46:58.369Z,9.00
2018-09-26T07:49:32.040Z,9.20
2018-09-26T07:52:05.751Z,9.30
2018-09-26T07:54:39.454Z,9.50
2018-09-26T07:57:13.147Z,9.80
2018-09-26T07:59:46.931Z,10.10
2018-09-26T08:02:20.563Z,10.20
2018-09-26T08:04:54.325Z,10.60
2018-09-26T08:07:28.216Z,11.40
2018-09-26T08:10:01.919Z,12.30
2018-09-26T08:12:35.794Z,13.50
2018-09-26T08:15:09.559Z,14.20
2018-09-26T08:17:43.523Z,14.50
2018-09-26T08:20:17.312Z,14.90
2018-09-26T08:22:51.125Z,15.50
2018-09-26T08:25:25.660Z,16.70
2018-09-26T08:27:59.415Z,16.60
2018-09-26T08:30:33.850Z,17.80
2018-09-26T08:33:08.817Z,17.80
2018-09-26T08:35:42.683Z,18.60
2018-09-26T08:38:16.381Z,19.10
2018-09-26T08:40:50.162Z,19.20
2018-09-26T08:43:23.913Z,18.80
2018-09-26T08:45:57.706Z,18.60
2018-09-26T08:48:31.333Z,18.30
2018-09-26T08:51:05.904Z,18.50
2018-09-26T08:53:39.831Z,18.50
2018-09-26T08:56:14.344Z,18.60
2018-09-26T08:58:48.905Z,18.90
2018-09-26T09:01:22.624Z,18.80
2018-09-26T09:03:56.389Z,19.20
2018-09-26T09:06:30.198Z,19.70
2018-09-26T09:09:04.008Z,19.70
2018-09-26T09:11:37.699Z,19.60
2018-09-26T09:14:12.306Z,19.40
2018-09-26T09:16:46.748Z,19.20
2018-09-26T09:19:20.506Z,19.20
2018-09-26T09:21:54.931Z,19.60
2018-09-26T09:24:28.758Z,19.60
2018-09-26T09:29:42.033Z,19.50
2018-09-26T09:32:16.455Z,20.20
2018-09-26T09:34:51.060Z,19.00
2018-09-26T09:37:24.937Z,19.00
2018-09-26T09:39:58.592Z,19.80
2018-09-26T09:42:33.039Z,20.80
2018-09-26T09:45:06.969Z,20.80
2018-09-26T09:47:40.635Z,19.80
2018-09-26T09:50:14.456Z,20.00
2018-09-26T09:52:48.195Z,20.20
2018-09-26T09:55:21.959Z,20.40
2018-09-26T09:57:55.653Z,20.50
2018-09-26T10:00:29.599Z,20.80
2018-09-26T10:03:03.480Z,21.10
2018-09-26T10:05:37.863Z,21.20
2018-09-26T10:08:11.535Z,21.20
2018-09-26T10:10:46.203Z,20.30
2018-09-26T10:13:20.038Z,20.20
2018-09-26T10:15:53.934Z,20.60
2018-09-26T10:18:27.716Z,21.00
2018-09-26T10:21:01.432Z,21.20
2018-09-26T10:23:35.199Z,21.30
2018-09-26T10:26:09.743Z,21.00
2018-09-26T10:28:43.535Z,20.90
2018-09-26T10:31:18.167Z,20.20
2018-09-26T10:33:52.560Z,20.80
2018-09-26T10:36:26.403Z,20.80
2018-09-26T10:39:00.974Z,21.40
2018-09-26T10:41:34.765Z,21.20
2018-09-26T10:44:08.581Z,21.80
2018-09-26T10:46:42.423Z,20.80
2018-09-26T10:49:16.052Z,20.30
2018-09-26T10:51:49.863Z,20.70
2018-09-26T10:54:23.742Z,21.30
2018-09-26T10:56:58.097Z,20.70
2018-09-26T10:59:31.903Z,20.70
2018-09-26T11:02:05.774Z,20.10
2018-09-26T11:04:39.541Z,20.30
2018-09-26T11:07:13.279Z,20.30
2018-09-26T11:09:47.058Z,20.10
2018-09-26T11:12:20.824Z,20.50
2018-09-26T11:14:55.213Z,20.40
2018-09-26T11:17:29.003Z,20.20
2018-09-26T11:20:02.848Z,19.70
2018-09-26T11:22:36.516Z,20.40
2018-09-26T11:25:10.339Z,20.60
2018-09-26T11:27:43.967Z,20.90
2018-09-26T11:30:17.714Z,20.70
2018-09-26T11:32:52.195Z,20.60
2018-09-26T11:35:26.178Z,20.80
2018-09-26T11:38:00.011Z,20.60
2018-09-26T11:40:33.805Z,20.40
2018-09-26T11:43:08.433Z,20.10
2018-09-26T11:45:42.240Z,20.10
2018-09-26T11:48:16.793Z,19.50
2018-09-26T11:50:50.583Z,19.50
2018-09-26T11:53:24.277Z,19.50
2018-09-26T11:55:58.060Z,19.60
2018-09-26T11:58:32.590Z,19.30
2018-09-26T12:01:07.121Z,19.20
2018-09-26T12:03:40.932Z,19.10
2018-09-26T12:06:16.450Z,19.20
2018-09-26T12:14:49.659Z,19.10
2018-09-26T12:17:23.316Z,19.10
2018-09-26T12:19:57.167Z,19.10
2018-09-26T12:22:31.719Z,19.30
2018-09-26T12:25:06.183Z,19.30
2018-09-26T12:27:40.095Z,19.30
2018-09-26T12:30:14.085Z,19.30
2018-09-26T12:32:47.944Z,19.30
2018-09-26T12:35:22.041Z,19.20
2018-09-26T12:37:55.816Z,19.30
2018-09-26T12:40:30.376Z,19.40
2018-09-26T12:43:04.240Z,19.40
2018-09-26T12:45:37.947Z,19.50
2018-09-26T12:48:12.146Z,19.60
2018-09-26T12:50:46.019Z,19.60
2018-09-26T12:53:19.916Z,19.60
2018-09-26T14:39:09.024Z,20.80
2018-09-26T14:41:43.583Z,20.90
2018-09-26T14:44:18.052Z,20.80
2018-09-26T14:46:52.066Z,20.80
2018-09-26T14:49:25.807Z,20.70
2018-09-26T14:52:00.433Z,20.60
2018-09-26T14:54:35.012Z,20.60
2018-09-26T14:57:08.834Z,20.50
2018-09-26T14:59:43.430Z,20.50
2018-09-26T15:02:17.187Z,20.50
2018-09-26T15:04:51.069Z,20.50
2018-09-26T15:07:24.803Z,20.40
2018-09-26T15:09:58.584Z,20.30
2018-09-26T15:12:32.581Z,20.30
2018-09-26T15:15:06.395Z,20.30
2018-09-26T15:17:45.941Z,20.30
2018-09-26T15:20:19.623Z,20.20
2018-09-26T15:22:53.229Z,20.10
2018-09-26T15:25:27.581Z,20.10
2018-09-26T15:28:01.200Z,20.10
2018-09-26T15:30:36.327Z,19.90
2018-09-26T15:33:10.209Z,19.90
2018-09-26T15:35:43.887Z,19.80
2018-09-26T15:38:17.622Z,19.80
2018-09-26T15:40:51.312Z,19.80
2018-09-26T15:43:26.578Z,19.70
2018-09-26T15:46:00.207Z,19.60
2018-09-26T15:48:34.158Z,19.50
2018-09-26T15:51:10.152Z,19.50
2018-09-26T15:53:44.708Z,19.50
2018-09-26T15:56:18.575Z,19.40
2018-09-26T15:58:52.102Z,19.40
2018-09-26T16:01:25.865Z,19.40
2018-09-26T16:03:59.680Z,19.40
2018-09-26T16:06:34.163Z,19.30
2018-09-26T16:09:08.155Z,19.30
2018-09-26T16:11:41.963Z,19.20
2018-09-26T16:14:15.727Z,19.10
2018-09-26T16:16:49.753Z,19.10
2018-09-26T16:19:23.407Z,19.10
2018-09-26T16:21:57.285Z,19.00
2018-09-26T16:24:30.944Z,19.00
2018-09-26T16:27:04.764Z,18.90
2018-09-26T16:29:39.282Z,18.80
2018-09-26T16:32:13.842Z,18.80
2018-09-26T16:34:48.731Z,18.80
2018-09-26T16:37:22.400Z,18.80
2018-09-26T16:39:56.128Z,18.80
2018-09-26T16:42:29.877Z,18.70
2018-09-26T16:45:03.497Z,18.70
2018-09-26T16:47:38.113Z,18.50
2018-09-26T16:50:12.100Z,18.50
2018-09-26T16:52:45.767Z,18.50
2018-09-26T16:55:20.343Z,18.30
2018-09-26T16:57:54.001Z,18.20
2018-09-26T17:00:27.699Z,18.20
2018-09-26T17:03:01.409Z,18.10
2018-09-26T17:05:35.057Z,18.00
2018-09-26T17:08:08.963Z,17.80
2018-09-26T17:10:42.584Z,17.60
2018-09-26T17:13:16.371Z,17.50
2018-09-26T17:15:50.102Z,17.30
2018-09-26T17:18:23.954Z,17.20
2018-09-26T17:20:58.509Z,17.00
2018-09-26T17:23:32.147Z,16.90
2018-09-26T17:26:06.084Z,16.80
2018-09-26T17:28:39.666Z,16.60
2018-09-26T17:31:13.460Z,16.50
2018-09-26T17:33:47.192Z,16.40
2018-09-26T17:36:20.878Z,16.40
2018-09-26T17:38:55.474Z,16.20
2018-09-26T17:41:29.507Z,16.20
2018-09-26T17:44:03.962Z,16.10
2018-09-26T17:46:37.755Z,16.00
2018-09-26T17:49:12.424Z,16.00
2018-09-26T17:51:46.057Z,15.90
2018-09-26T17:54:19.925Z,15.80
2018-09-26T17:56:53.570Z,15.80
2018-09-26T17:59:27.368Z,15.70
2018-09-26T18:02:01.227Z,15.70
2018-09-26T18:04:34.945Z,15.60
2018-09-26T18:07:08.527Z,15.60
2018-09-26T18:09:42.420Z,15.50
2018-09-26T18:12:16.932Z,15.30
2018-09-26T18:14:50.550Z,15.30
2018-09-26T18:17:24.347Z,15.30
2018-09-26T18:19:58.096Z,15.20
2018-09-26T18:22:31.882Z,15.10
2018-09-26T18:25:05.607Z,15.00
2018-09-26T18:27:39.384Z,15.10
2018-09-26T18:30:13.021Z,15.00
2018-09-26T18:32:47.441Z,14.90
2018-09-26T18:35:21.096Z,14.90
2018-09-26T18:37:55.012Z,14.80
2018-09-26T18:40:29.593Z,14.80
2018-09-26T18:43:03.203Z,14.70
2018-09-26T18:45:36.867Z,14.70
2018-09-26T18:48:11.507Z,14.50
2018-09-26T18:50:45.221Z,14.50
2018-09-26T18:53:19.152Z,14.40
2018-09-26T18:55:52.694Z,14.40
2018-09-26T18:58:26.416Z,14.30
2018-09-26T19:01:00.222Z,14.30
2018-09-26T19:03:34.073Z,14.20
2018-09-26T19:06:08.461Z,14.10
2018-09-26T19:08:42.151Z,14.00
2018-09-26T19:11:15.861Z,14.00
2018-09-26T19:13:49.550Z,14.00
2018-09-26T19:16:23.237Z,14.00
2018-09-26T19:18:56.839Z,14.00
2018-09-26T19:21:31.491Z,13.90
2018-09-26T19:24:05.332Z,13.90
2018-09-26T19:26:39.211Z,13.80
2018-09-26T19:29:13.663Z,13.80
2018-09-26T19:31:47.436Z,13.70
2018-09-26T19:34:21.251Z,13.70
2018-09-26T19:36:54.924Z,13.70
2018-09-26T19:39:29.342Z,13.60
2018-09-26T19:42:03.870Z,13.60
2018-09-26T19:44:37.439Z,13.60
2018-09-26T19:47:11.270Z,13.50
2018-09-26T19:49:44.947Z,13.50
2018-09-26T19:52:18.801Z,13.50
2018-09-26T19:54:52.396Z,13.40
2018-09-26T19:57:26.303Z,13.40
2018-09-26T20:00:00.524Z,13.40
2018-09-26T20:02:34.143Z,13.40
2018-09-26T20:05:07.845Z,13.40
2018-09-26T20:07:41.719Z,13.40
2018-09-26T20:10:15.605Z,13.30
2018-09-26T20:12:49.355Z,13.30
2018-09-26T20:15:23.106Z,13.30
2018-09-26T20:17:56.901Z,13.20
2018-09-26T20:20:30.739Z,13.20
2018-09-26T20:23:04.520Z,13.20
2018-09-26T20:25:38.220Z,13.10
2018-09-26T20:28:11.950Z,13.00
2018-09-26T20:30:45.721Z,12.90
2018-09-26T20:33:20.298Z,12.60
2018-09-26T20:35:53.801Z,12.60
2018-09-26T20:38:27.593Z,12.50
2018-09-26T20:41:01.332Z,12.50
2018-09-26T20:43:35.090Z,12.40
2018-09-26T20:46:08.964Z,12.40
2018-09-26T20:48:42.543Z,12.30
2018-09-26T20:51:16.409Z,12.30
2018-09-26T20:53:50.027Z,12.30
2018-09-26T20:56:24.605Z,12.30
2018-09-26T20:58:58.230Z,12.30
2018-09-26T21:01:32.069Z,12.30
2018-09-26T21:04:05.683Z,12.30
2018-09-26T21:06:39.552Z,12.20
2018-09-26T21:09:14.105Z,12.10
2018-09-26T21:11:47.876Z,12.10
2018-09-26T21:14:21.546Z,12.10
2018-09-26T21:16:56.676Z,12.00
2018-09-26T21:19:31.150Z,12.00
2018-09-26T21:22:05.586Z,12.00
2018-09-26T21:24:39.379Z,11.90
2018-09-26T21:27:13.161Z,11.90
2018-09-26T21:29:46.946Z,11.90
2018-09-26T21:32:20.771Z,11.90
2018-09-26T21:34:54.409Z,11.80
2018-09-26T21:37:28.083Z,11.80
2018-09-26T21:40:02.553Z,11.80
2018-09-26T21:42:36.427Z,11.80
2018-09-26T21:45:10.139Z,11.80
2018-09-26T21:47:43.879Z,11.70
2018-09-26T21:50:18.107Z,11.60
2018-09-26T21:52:51.714Z,11.50
2018-09-26T21:55:25.433Z,11.50
2018-09-26T21:57:59.964Z,11.40
2018-09-26T22:00:33.748Z,11.40
2018-09-26T22:03:08.391Z,11.50
2018-09-26T22:05:42.011Z,11.40
2018-09-26T22:08:15.905Z,11.50
2018-09-26T22:10:49.516Z,11.40
2018-09-26T22:13:23.362Z,11.40
2018-09-26T22:15:57.075Z,11.30
2018-09-26T22:18:30.802Z,11.30
2018-09-26T22:21:04.593Z,11.20
2018-09-26T22:23:38.173Z,11.20
2018-09-26T22:26:11.958Z,11.10
2018-09-26T22:28:45.691Z,11.10
2018-09-26T22:31:19.395Z,11.00
2018-09-26T22:33:53.700Z,11.00
2018-09-26T22:36:27.543Z,11.00
2018-09-26T22:39:01.397Z,11.00
2018-09-26T22:41:35.137Z,11.00
2018-09-26T22:44:09.674Z,11.00
2018-09-26T22:46:43.832Z,10.90
2018-09-26T22:49:17.385Z,10.80
2018-09-26T22:51:51.065Z,10.80
2018-09-26T22:54:24.711Z,10.80
2018-09-26T22:56:58.470Z,10.80
2018-09-26T22:59:32.157Z,10.80
2018-09-26T23:02:06.018Z,10.80
2018-09-26T23:04:39.782Z,10.60
2018-09-26T23:07:14.321Z,10.60
2018-09-26T23:09:48.164Z,10.50
2018-09-26T23:12:21.777Z,10.60
2018-09-26T23:14:55.524Z,10.50
2018-09-26T23:17:29.191Z,10.50
2018-09-26T23:20:03.752Z,10.50
2018-09-26T23:22:39.771Z,10.50
2018-09-26T23:25:13.621Z,10.50
2018-09-26T23:27:47.557Z,10.50
2018-09-26T23:30:21.532Z,10.50
2018-09-26T23:32:55.341Z,10.40
2018-09-26T23:35:29.936Z,10.40
2018-09-26T23:38:04.399Z,10.40
2018-09-26T23:40:38.178Z,10.30
2018-09-26T23:43:11.931Z,10.30
2018-09-26T23:45:45.651Z,10.30
2018-09-26T23:48:19.225Z,10.30
2018-09-26T23:50:52.874Z,10.30
2018-09-26T23:53:26.534Z,10.20
2018-09-26T23:56:00.451Z,10.10
2018-09-26T23:58:34.065Z,10.10
